Time;durP1;ratioP1;P1;durP2;ratioP2;P2;SDS_P1;SDS_P2;PMS_P1;PMS_P2;Temp;Humidity;BMP_temperature;BMP_pressure;BME280_temperature;BME280_humidity;BME280_pressure;Samples;Min_cycle;Max_cycle;Signal;HPM_P1;HPM_P2
2021/11/03 00:00:16;;;;;;;919.50;857.67;;;;;;;21.25;56.83;101975.00;5099792;27;20031;-42
2021/11/03 00:02:42;;;;;;;885.83;827.72;;;;;;;21.23;57.22;101973.41;5092078;28;20389;-41
2021/11/03 00:05:09;;;;;;;923.20;862.10;;;;;;;21.22;56.91;101977.09;5092884;28;20031;-42
2021/11/03 00:07:36;;;;;;;929.88;868.00;;;;;;;21.14;57.03;101967.06;5092314;28;20048;-42
2021/11/03 00:10:04;;;;;;;916.67;855.33;;;;;;;21.21;56.88;101975.38;5090022;28;20028;-42
2021/11/03 00:12:30;;;;;;;916.97;856.30;;;;;;;21.18;57.39;101968.50;5100408;28;20565;-40
2021/11/03 00:14:57;;;;;;;890.90;832.00;;;;;;;21.20;57.11;101965.69;5080430;28;20445;-41
2021/11/03 00:17:23;;;;;;;913.45;852.63;;;;;;;21.22;57.01;101964.56;5097124;28;20346;-41
2021/11/03 00:19:49;;;;;;;891.63;832.75;;;;;;;21.21;56.77;101962.03;5091124;28;20033;-41
2021/11/03 00:22:16;;;;;;;925.63;863.15;;;;;;;21.17;57.23;101958.75;5094176;28;20063;-42
2021/11/03 00:24:42;;;;;;;919.63;857.88;;;;;;;21.18;56.84;101959.63;5091750;28;20084;-43
2021/11/03 00:27:09;;;;;;;934.28;871.80;;;;;;;21.16;56.94;101964.22;5100635;28;20055;-41
2021/11/03 00:29:35;;;;;;;929.70;866.78;;;;;;;21.16;56.83;101959.75;5097457;28;20100;-42
2021/11/03 00:32:01;;;;;;;923.08;860.47;;;;;;;21.15;57.29;101963.41;5092939;28;21243;-43
2021/11/03 00:34:28;;;;;;;931.83;867.97;;;;;;;21.14;56.97;101960.84;5096901;28;20035;-41
2021/11/03 00:36:54;;;;;;;947.85;882.65;;;;;;;21.15;57.00;101957.22;5096872;28;20028;-38
2021/11/03 00:39:22;;;;;;;914.83;854.15;;;;;;;21.13;57.22;101954.66;5090531;28;20438;-42
2021/11/03 00:41:49;;;;;;;922.97;860.60;;;;;;;21.15;57.34;101949.19;5103650;28;20063;-42
2021/11/03 00:44:16;;;;;;;934.70;871.75;;;;;;;21.15;56.91;101951.88;5098266;28;20043;-42
2021/11/03 00:46:42;;;;;;;942.88;879.20;;;;;;;21.14;57.17;101948.38;5087926;28;20020;-42
2021/11/03 00:49:08;;;;;;;939.90;875.83;;;;;;;21.13;57.30;101943.16;5090400;28;20034;-40
2021/11/03 00:51:35;;;;;;;927.63;865.00;;;;;;;21.12;57.30;101950.28;5095444;28;20077;-40
2021/11/03 00:54:01;;;;;;;944.20;880.45;;;;;;;21.12;56.90;101949.47;5093084;28;20027;-41
2021/11/03 00:56:27;;;;;;;931.85;868.60;;;;;;;21.12;57.12;101941.44;5092184;28;20020;-41
2021/11/03 00:58:53;;;;;;;909.55;849.88;;;;;;;21.11;57.29;101947.78;5091711;28;20020;-42
2021/11/03 01:01:20;;;;;;;946.78;882.63;;;;;;;20.70;57.33;101875.56;5096365;28;20424;-40
2021/11/03 01:03:47;;;;;;;918.88;857.33;;;;;;;21.10;57.18;101949.59;5107032;28;20034;-41
2021/11/03 01:06:13;;;;;;;978.45;912.22;;;;;;;21.09;56.99;101955.91;5106951;28;20024;-42
2021/11/03 01:08:39;;;;;;;935.83;873.17;;;;;;;20.76;56.94;101900.88;5091933;28;20103;-42
2021/11/03 01:11:06;;;;;;;952.38;886.92;;;;;;;21.06;56.88;101951.66;5077664;28;20099;-42
2021/11/03 01:13:32;;;;;;;953.67;889.25;;;;;;;21.04;56.87;101955.47;5095371;28;20082;-41
2021/11/03 01:15:58;;;;;;;938.13;874.63;;;;;;;21.04;57.23;101953.63;5090774;28;20028;-41
2021/11/03 01:18:26;;;;;;;927.15;863.75;;;;;;;21.03;56.88;101959.09;5090276;28;20020;-42
2021/11/03 01:20:52;;;;;;;881.60;824.17;;;;;;;21.04;57.29;101961.63;5094261;28;20024;-42
2021/11/03 01:23:19;;;;;;;920.72;859.25;;;;;;;21.06;57.35;101961.50;5095927;28;20042;-42
2021/11/03 01:25:45;;;;;;;922.22;859.90;;;;;;;21.04;57.15;101964.31;5092790;28;20108;-41
2021/11/03 01:28:11;;;;;;;925.17;863.20;;;;;;;21.06;57.15;101970.38;5089607;28;20035;-40
2021/11/03 01:30:38;;;;;;;933.67;870.67;;;;;;;21.05;56.96;101966.03;5092530;28;20122;-41
2021/11/03 01:33:05;;;;;;;942.00;879.03;;;;;;;21.04;57.09;101964.31;5090234;28;20023;-42
2021/11/03 01:35:31;;;;;;;910.40;849.40;;;;;;;21.03;56.91;101964.44;5099627;28;20053;-38
2021/11/03 01:37:58;;;;;;;920.78;858.63;;;;;;;21.01;57.03;101972.56;5095159;28;20453;-40
2021/11/03 01:40:27;;;;;;;892.42;833.35;;;;;;;21.02;57.14;101968.09;5092807;28;20028;-41
2021/11/03 01:42:53;;;;;;;872.08;815.25;;;;;;;21.03;57.03;101976.00;5066749;28;20052;-43
2021/11/03 01:45:20;;;;;;;868.17;810.75;;;;;;;20.97;57.00;101964.97;5058428;28;20031;-42
2021/11/03 01:47:54;;;;;;;848.10;792.97;;;;;;;20.95;57.50;101966.94;5056287;28;20025;-41
2021/11/03 01:50:28;;;;;;;866.05;809.75;;;;;;;20.97;57.51;101970.31;5067218;28;20113;-42
2021/11/03 01:53:05;;;;;;;918.28;856.78;;;;;;;21.02;57.23;101982.28;5058814;28;20079;-40
2021/11/03 01:55:31;;;;;;;917.05;856.30;;;;;;;21.04;57.11;101985.69;5037713;28;20032;-41
2021/11/03 01:58:10;;;;;;;926.83;865.05;;;;;;;20.93;57.06;101968.84;5053589;28;20354;-42
2021/11/03 02:00:38;;;;;;;918.97;857.65;;;;;;;21.03;57.35;101985.81;5037736;28;20037;-39
2021/11/03 02:03:08;;;;;;;954.65;889.67;;;;;;;21.01;57.06;101990.44;5052291;28;20047;-41
2021/11/03 02:05:34;;;;;;;931.10;868.50;;;;;;;21.02;57.17;101989.47;5055132;28;20032;-40
2021/11/03 02:08:00;;;;;;;943.80;879.90;;;;;;;21.00;57.26;101991.41;5053683;28;20029;-42
2021/11/03 02:10:27;;;;;;;927.97;864.80;;;;;;;21.00;57.05;101991.41;5054011;28;20041;-41
2021/11/03 02:12:53;;;;;;;941.92;878.15;;;;;;;21.00;56.93;101991.41;5049263;28;20462;-43
2021/11/03 02:15:19;;;;;;;921.03;858.53;;;;;;;20.99;56.86;101998.56;5050164;28;20024;-40
2021/11/03 02:17:45;;;;;;;920.03;857.67;;;;;;;20.98;57.14;101996.88;5052111;28;20030;-42
2021/11/03 02:20:13;;;;;;;959.70;894.42;;;;;;;20.99;57.11;102001.25;5054471;28;20351;-40
2021/11/03 02:22:52;;;;;;;958.63;893.97;;;;;;;20.96;56.84;102004.16;5068215;28;20507;-42
2021/11/03 02:25:20;;;;;;;957.55;892.03;;;;;;;20.96;56.96;102001.50;5052211;28;20053;-43
2021/11/03 02:27:48;;;;;;;919.08;856.65;;;;;;;20.95;57.35;101997.13;5053943;28;20053;-42
2021/11/03 02:30:17;;;;;;;952.40;886.95;;;;;;;20.94;57.03;101998.09;5062183;28;20025;-40
2021/11/03 02:32:44;;;;;;;903.83;842.67;;;;;;;20.95;57.10;102001.66;5051682;28;20025;-41
2021/11/03 02:35:13;;;;;;;863.17;805.90;;;;;;;20.93;56.69;101995.56;5053709;28;20467;-38
2021/11/03 02:37:42;;;;;;;876.28;818.55;;;;;;;20.93;57.20;102006.25;5053951;28;20017;-42
2021/11/03 02:40:37;;;;;;;902.17;842.08;;;;;;;20.94;56.90;102005.28;5044971;28;20025;-40
2021/11/03 02:43:09;;;;;;;939.63;877.38;;;;;;;20.85;57.11;101993.53;5040353;28;20064;-41
2021/11/03 02:45:38;;;;;;;828.30;775.05;;;;;;;20.92;56.94;102004.56;5047897;28;20013;-42
2021/11/03 02:48:04;;;;;;;945.42;881.25;;;;;;;20.88;57.12;102002.13;5054167;28;20115;-42
2021/11/03 02:50:31;;;;;;;947.15;883.63;;;;;;;20.89;56.76;102003.84;5049895;28;20038;-41
2021/11/03 02:52:57;;;;;;;918.25;855.72;;;;;;;20.87;56.77;102005.81;5049287;28;20024;-41
2021/11/03 02:55:23;;;;;;;888.67;830.40;;;;;;;20.89;56.99;102001.19;5051567;28;20476;-41
2021/11/03 02:57:49;;;;;;;906.97;845.55;;;;;;;20.88;56.73;102003.97;5052906;28;20443;-40
2021/11/03 03:00:20;;;;;;;889.90;830.65;;;;;;;20.84;57.29;101997.19;5052365;28;20124;-43
2021/11/03 03:02:47;;;;;;;862.33;805.25;;;;;;;20.85;57.16;101999.72;5062715;28;20102;-41
2021/11/03 03:05:13;;;;;;;875.22;817.47;;;;;;;20.84;56.84;102000.72;5053324;28;20029;-43
2021/11/03 03:07:39;;;;;;;867.30;810.10;;;;;;;20.83;56.65;101999.00;5046622;28;20430;-41
2021/11/03 03:10:06;;;;;;;881.67;822.78;;;;;;;20.81;56.87;101992.94;5041395;28;20069;-41
2021/11/03 03:12:33;;;;;;;929.40;866.13;;;;;;;20.83;56.73;101991.00;5053567;28;20405;-42
2021/11/03 03:14:59;;;;;;;932.15;869.10;;;;;;;20.77;56.71;101986.19;5054164;28;20041;-42
2021/11/03 03:17:25;;;;;;;899.45;839.20;;;;;;;20.82;57.01;101997.31;5052659;28;20017;-41
2021/11/03 03:19:52;;;;;;;900.25;839.88;;;;;;;20.81;56.73;101997.44;5069809;28;20033;-42
2021/11/03 03:22:19;;;;;;;948.95;884.63;;;;;;;20.82;57.06;102001.81;5054087;28;20021;-42
2021/11/03 03:24:45;;;;;;;901.33;840.55;;;;;;;20.82;56.85;102004.47;5050196;28;20469;-42
2021/11/03 03:27:12;;;;;;;919.53;857.33;;;;;;;20.81;56.60;101998.28;5051299;28;20513;-40
2021/11/03 03:29:38;;;;;;;928.38;865.97;;;;;;;20.81;56.92;102008.97;5050709;28;20375;-37
2021/11/03 03:32:05;;;;;;;877.83;819.17;;;;;;;20.75;56.55;102004.16;5049060;28;20043;-39
2021/11/03 03:34:33;;;;;;;891.90;832.38;;;;;;;20.80;56.68;102003.75;5047088;28;20469;-42
2021/11/03 03:36:59;;;;;;;935.10;871.83;;;;;;;20.79;57.10;102018.09;5054602;28;20115;-41
2021/11/03 03:39:26;;;;;;;878.67;820.55;;;;;;;20.77;56.78;102010.22;5057422;28;20017;-43
2021/11/03 03:41:55;;;;;;;911.92;850.10;;;;;;;20.75;56.88;102020.16;5055184;28;20032;-38
2021/11/03 03:44:21;;;;;;;907.13;845.40;;;;;;;20.76;57.02;102024.50;5057206;28;20462;-42
2021/11/03 03:46:47;;;;;;;894.47;834.42;;;;;;;20.77;56.71;102022.69;5056764;28;20060;-42
2021/11/03 03:49:13;;;;;;;931.28;867.92;;;;;;;20.73;56.65;102016.75;5057372;28;20043;-42
2021/11/03 03:51:40;;;;;;;913.13;850.88;;;;;;;20.76;56.70;102021.84;5057540;28;20021;-39
2021/11/03 03:54:07;;;;;;;926.75;863.08;;;;;;;20.76;56.84;102026.34;5057294;28;20032;-43
2021/11/03 03:56:33;;;;;;;928.75;864.83;;;;;;;20.74;56.57;102034.47;5056890;28;20027;-43
2021/11/03 03:58:59;;;;;;;923.35;861.15;;;;;;;20.74;56.80;102026.47;5057277;28;20028;-39
2021/11/03 04:01:27;;;;;;;917.45;855.30;;;;;;;20.69;56.95;102026.00;5056804;28;20478;-41
2021/11/03 04:03:53;;;;;;;917.83;855.42;;;;;;;20.71;56.58;102037.41;5056550;28;20033;-37
2021/11/03 04:06:19;;;;;;;932.75;868.70;;;;;;;20.72;56.88;102028.41;5044934;28;20103;-40
2021/11/03 04:08:46;;;;;;;944.40;879.78;;;;;;;20.72;57.01;102022.25;5051730;28;20036;-42
2021/11/03 04:11:12;;;;;;;899.75;839.88;;;;;;;20.72;56.64;102022.25;5047767;28;20025;-41
2021/11/03 04:13:38;;;;;;;887.13;827.58;;;;;;;20.73;56.67;102024.75;5049277;28;20033;-40
2021/11/03 04:16:05;;;;;;;920.80;857.90;;;;;;;20.70;56.68;102030.38;5050684;28;20324;-41
2021/11/03 04:18:31;;;;;;;937.65;873.63;;;;;;;20.69;56.56;102028.66;5054786;28;20021;-40
2021/11/03 04:20:57;;;;;;;874.58;816.10;;;;;;;20.67;56.92;102027.94;5055285;28;20037;-41
2021/11/03 04:23:24;;;;;;;865.20;808.72;;;;;;;20.66;56.43;102034.25;5056127;28;20025;-39
2021/11/03 04:25:50;;;;;;;892.40;832.05;;;;;;;20.66;56.78;102043.13;5054575;28;20024;-41
2021/11/03 04:28:16;;;;;;;945.28;880.60;;;;;;;20.65;56.91;102040.59;5054390;28;20087;-40
2021/11/03 04:30:43;;;;;;;830.28;776.38;;;;;;;20.67;56.60;102043.97;5051396;28;20029;-40
2021/11/03 04:33:09;;;;;;;919.17;856.78;;;;;;;20.63;56.68;102046.03;5050480;28;20116;-40
2021/11/03 04:35:35;;;;;;;906.38;845.97;;;;;;;20.66;56.36;102051.13;5050324;28;20025;-40
2021/11/03 04:38:02;;;;;;;928.38;866.30;;;;;;;20.65;56.84;102045.91;5055136;28;20025;-41
2021/11/03 04:40:28;;;;;;;930.22;867.38;;;;;;;20.65;56.37;102057.44;5054333;28;20036;-42
2021/11/03 04:42:55;;;;;;;883.35;824.80;;;;;;;20.62;56.38;102047.00;5039148;28;20467;-42
2021/11/03 04:45:21;;;;;;;937.63;872.95;;;;;;;20.62;56.59;102052.34;5048020;28;20025;-41
2021/11/03 04:47:48;;;;;;;909.25;847.90;;;;;;;20.60;56.38;102058.75;5054230;28;20032;-42
2021/11/03 04:50:19;;;;;;;942.78;877.85;;;;;;;20.60;56.83;102061.44;5053735;28;20029;-41
2021/11/03 04:52:46;;;;;;;862.13;805.95;;;;;;;20.58;56.52;102060.72;5052912;28;20036;-40
2021/11/03 04:55:12;;;;;;;923.95;861.25;;;;;;;20.57;56.55;102056.31;5054336;28;20051;-40
2021/11/03 04:57:38;;;;;;;913.03;851.97;;;;;;;20.57;56.18;102059.84;5052829;28;20100;-41
2021/11/03 05:00:07;;;;;;;903.53;843.30;;;;;;;20.58;56.58;102066.03;5053199;28;20021;-43
2021/11/03 05:02:33;;;;;;;928.90;865.67;;;;;;;20.61;56.15;102060.47;5045600;28;20025;-40
2021/11/03 05:05:00;;;;;;;922.65;860.28;;;;;;;20.61;56.22;102068.47;5054455;28;20536;-41
2021/11/03 05:07:26;;;;;;;926.70;864.60;;;;;;;20.57;56.46;102069.66;5055926;28;20021;-41
2021/11/03 05:09:52;;;;;;;915.17;853.17;;;;;;;20.52;56.42;102064.72;5054985;28;20087;-40
2021/11/03 05:12:18;;;;;;;923.90;861.72;;;;;;;20.52;56.55;102060.22;5054841;28;20036;-41
2021/11/03 05:14:45;;;;;;;894.38;834.72;;;;;;;20.50;56.29;102075.53;5050289;28;20028;-41
2021/11/03 05:17:11;;;;;;;935.47;871.85;;;;;;;20.49;56.28;102072.97;5051346;28;20443;-39
2021/11/03 05:19:37;;;;;;;914.53;852.47;;;;;;;20.49;56.21;102064.97;5052556;28;20036;-39
2021/11/03 05:22:04;;;;;;;926.67;863.38;;;;;;;20.48;56.79;102071.25;5053588;28;20099;-42
2021/11/03 05:24:30;;;;;;;905.03;844.65;;;;;;;20.51;56.56;102077.19;5061505;28;20120;-42
2021/11/03 05:26:57;;;;;;;920.85;858.58;;;;;;;20.52;56.27;102075.41;5037009;28;20079;-42
2021/11/03 05:29:23;;;;;;;935.72;872.53;;;;;;;20.50;56.15;102077.31;5044154;28;20034;-42
2021/11/03 05:31:49;;;;;;;900.80;840.30;;;;;;;20.50;56.40;102075.53;5038069;28;20029;-39
2021/11/03 05:34:16;;;;;;;923.58;861.20;;;;;;;20.48;56.20;102079.28;5051290;28;20103;-38
2021/11/03 05:36:42;;;;;;;901.45;840.22;;;;;;;20.47;56.59;102086.44;5055478;28;20025;-38
2021/11/03 05:39:11;;;;;;;947.72;882.75;;;;;;;20.45;56.56;102091.03;5055529;28;20017;-39
2021/11/03 05:41:40;;;;;;;912.67;850.88;;;;;;;20.42;56.14;102083.28;5052692;28;20060;-39
2021/11/03 05:44:11;;;;;;;905.85;845.25;;;;;;;20.41;56.54;102084.28;5048412;28;20065;-42
2021/11/03 05:46:44;;;;;;;928.53;866.38;;;;;;;20.33;56.62;102082.19;5049714;28;20033;-41
2021/11/03 05:49:13;;;;;;;939.72;876.38;;;;;;;20.41;56.37;102088.75;5053236;28;20025;-41
2021/11/03 05:51:40;;;;;;;894.97;835.83;;;;;;;20.42;55.88;102077.94;5052791;28;20028;-39
2021/11/03 05:54:06;;;;;;;933.35;870.38;;;;;;;20.36;56.42;102073.13;5051855;28;20381;-42
2021/11/03 05:56:33;;;;;;;895.83;835.78;;;;;;;20.43;56.12;102085.00;5050963;28;20025;-41
2021/11/03 05:58:59;;;;;;;928.42;864.97;;;;;;;20.43;56.05;102084.13;5057501;28;20077;-42
2021/11/03 06:01:25;;;;;;;946.67;882.53;;;;;;;20.40;56.07;102079.91;5055141;28;20442;-41
2021/11/03 06:03:53;;;;;;;924.20;861.80;;;;;;;20.36;56.00;102083.78;5048276;28;20033;-40
2021/11/03 06:06:20;;;;;;;918.80;857.08;;;;;;;20.38;55.89;102086.34;5035450;28;20025;-42
2021/11/03 06:08:48;;;;;;;926.47;864.78;;;;;;;20.33;56.09;102078.69;5049267;28;20035;-40
2021/11/03 06:11:16;;;;;;;894.17;835.83;;;;;;;20.33;56.34;102089.38;5051995;28;20032;-39
2021/11/03 06:13:42;;;;;;;915.88;854.75;;;;;;;20.32;56.39;102080.53;5047866;28;20036;-38
2021/11/03 06:16:09;;;;;;;912.15;851.55;;;;;;;20.35;56.11;102081.25;5040952;28;20126;-42
2021/11/03 06:18:35;;;;;;;888.42;830.03;;;;;;;20.33;56.32;102084.03;5047770;28;20041;-40
2021/11/03 06:21:02;;;;;;;916.63;855.67;;;;;;;20.33;56.32;102076.03;5048276;28;20162;-40
2021/11/03 06:23:28;;;;;;;929.20;867.13;;;;;;;20.32;56.08;102080.53;5054021;28;20409;-41
2021/11/03 06:25:54;;;;;;;880.25;820.78;;;;;;;20.31;55.75;102083.31;5040578;28;20363;-40
2021/11/03 06:28:20;;;;;;;915.42;854.65;;;;;;;20.28;56.30;102083.53;5054385;28;20113;-40
2021/11/03 06:30:47;;;;;;;921.17;860.50;;;;;;;20.24;56.45;102082.09;5056976;28;20149;-40
2021/11/03 06:33:13;;;;;;;921.67;859.72;;;;;;;20.24;56.19;102087.44;5055264;28;20107;-39
2021/11/03 06:35:40;;;;;;;917.42;855.97;;;;;;;20.22;56.25;102081.38;5048783;28;20060;-39
2021/11/03 06:38:07;;;;;;;917.72;856.90;;;;;;;20.22;56.33;102087.53;5050976;28;20139;-41
2021/11/03 06:40:35;;;;;;;897.90;838.47;;;;;;;20.23;56.27;102093.72;5049032;28;20097;-40
2021/11/03 06:43:01;;;;;;;872.05;815.83;;;;;;;20.24;56.40;102082.94;5047350;28;20083;-39
2021/11/03 06:45:28;;;;;;;906.80;847.20;;;;;;;20.24;55.99;102090.94;5050272;28;20442;-38
2021/11/03 06:47:54;;;;;;;924.65;863.03;;;;;;;20.19;56.23;102085.13;5050400;28;20504;-39
2021/11/03 06:50:23;;;;;;;910.88;850.85;;;;;;;20.19;56.16;102087.78;5049810;28;20021;-41
2021/11/03 06:52:50;;;;;;;907.95;847.88;;;;;;;20.18;56.29;102091.44;5042857;28;20067;-39
2021/11/03 06:55:17;;;;;;;920.40;859.22;;;;;;;20.11;56.08;102077.72;5053150;28;20041;-40
2021/11/03 06:57:43;;;;;;;894.83;836.88;;;;;;;20.13;55.78;102086.47;5052295;28;20033;-39
2021/11/03 07:00:12;;;;;;;923.38;862.22;;;;;;;20.13;55.95;102082.94;5052330;28;20086;-39
2021/11/03 07:02:39;;;;;;;873.60;816.33;;;;;;;20.17;56.14;102075.56;5053908;28;20020;-42
2021/11/03 07:05:05;;;;;;;898.20;839.15;;;;;;;20.14;55.75;102085.47;5048387;28;20039;-41
2021/11/03 07:07:31;;;;;;;899.05;839.78;;;;;;;20.13;56.26;102081.13;5050849;28;20328;-38
2021/11/03 07:09:57;;;;;;;893.53;835.10;;;;;;;20.13;56.33;102078.44;5055122;28;20473;-38
2021/11/03 07:12:24;;;;;;;907.60;848.15;;;;;;;20.13;55.59;102081.13;5042450;28;20448;-41
2021/11/03 07:14:50;;;;;;;899.38;840.10;;;;;;;20.11;55.88;102079.53;5052039;28;20025;-42
2021/11/03 07:17:16;;;;;;;909.55;849.85;;;;;;;20.06;56.18;102079.91;5054899;28;20090;-40
2021/11/03 07:19:42;;;;;;;918.95;858.28;;;;;;;20.09;56.19;102071.69;5053369;28;20068;-38
2021/11/03 07:22:09;;;;;;;884.30;826.53;;;;;;;20.08;55.61;102080.63;5050223;28;20029;-39
2021/11/03 07:24:35;;;;;;;894.30;835.97;;;;;;;20.05;56.18;102075.53;5057564;28;20493;-39
2021/11/03 07:27:02;;;;;;;887.90;829.97;;;;;;;20.06;55.70;102077.25;5052004;28;20025;-40
2021/11/03 07:29:29;;;;;;;894.75;836.78;;;;;;;20.07;55.67;102070.91;5049263;28;20032;-39
2021/11/03 07:31:55;;;;;;;905.20;846.38;;;;;;;20.10;55.68;102073.34;5057060;28;20029;-41
2021/11/03 07:34:21;;;;;;;877.65;820.63;;;;;;;20.09;55.85;102070.81;5053959;28;20112;-40
2021/11/03 07:36:49;;;;;;;884.70;827.38;;;;;;;20.07;55.90;102073.59;5050952;28;20029;-41
2021/11/03 07:39:15;;;;;;;893.47;834.45;;;;;;;20.06;55.66;102069.25;5055954;28;20104;-36
2021/11/03 07:41:41;;;;;;;879.10;822.28;;;;;;;20.00;56.03;102060.88;5055570;28;20024;-39
2021/11/03 07:44:08;;;;;;;894.53;835.47;;;;;;;19.96;56.01;102065.59;5056230;28;20021;-40
2021/11/03 07:46:34;;;;;;;893.97;835.63;;;;;;;19.98;56.07;102069.00;5050250;28;20021;-40
2021/11/03 07:49:01;;;;;;;877.08;820.15;;;;;;;19.94;55.66;102060.38;5057325;28;20358;-42
2021/11/03 07:51:27;;;;;;;919.75;859.38;;;;;;;19.98;55.96;102063.66;5057168;28;20068;-38
2021/11/03 07:53:58;;;;;;;861.05;805.20;;;;;;;19.99;55.78;102057.38;5057330;28;20363;-39
2021/11/03 07:56:27;;;;;;;848.45;794.40;;;;;;;20.00;55.83;102056.38;5057223;28;20032;-37
2021/11/03 07:58:53;;;;;;;860.35;805.92;;;;;;;19.98;55.93;102057.47;5056036;28;20029;-39
2021/11/03 08:01:20;;;;;;;891.13;833.10;;;;;;;19.97;55.83;102053.09;5055745;28;20438;-38
2021/11/03 08:03:46;;;;;;;898.55;839.72;;;;;;;19.91;55.92;102057.09;5056870;28;20032;-36
2021/11/03 08:06:12;;;;;;;943.10;880.38;;;;;;;19.92;55.79;102056.16;5041028;28;20367;-40
2021/11/03 08:08:43;;;;;;;943.95;881.33;;;;;;;19.88;55.47;102049.34;5051872;28;20099;-36
2021/11/03 08:11:11;;;;;;;954.17;891.57;;;;;;;19.90;55.49;102050.94;5055132;28;20052;-41
2021/11/03 08:13:38;;;;;;;940.20;878.17;;;;;;;19.88;55.57;102046.69;5054236;28;20029;-41
2021/11/03 08:16:05;;;;;;;939.75;878.60;;;;;;;19.86;55.77;102040.63;5044738;28;20029;-37
2021/11/03 08:18:33;;;;;;;933.92;872.67;;;;;;;19.89;55.44;102048.38;5054173;28;20346;-41
2021/11/03 08:20:59;;;;;;;936.33;874.88;;;;;;;19.88;55.72;102044.88;5049331;28;20056;-39
2021/11/03 08:23:25;;;;;;;940.17;878.67;;;;;;;19.89;55.56;102043.91;5038172;28;20032;-41
2021/11/03 08:25:52;;;;;;;944.88;882.65;;;;;;;19.87;55.64;102045.00;5048473;28;20036;-42
2021/11/03 08:28:18;;;;;;;943.50;880.63;;;;;;;19.87;55.30;102043.16;5047057;28;20038;-39
2021/11/03 08:30:46;;;;;;;959.20;895.55;;;;;;;19.84;55.47;102040.72;5053338;28;20067;-41
2021/11/03 08:33:15;;;;;;;939.00;877.08;;;;;;;19.83;55.82;102032.88;5049382;28;20025;-41
2021/11/03 08:35:43;;;;;;;938.10;876.55;;;;;;;19.66;55.27;102013.69;5044480;28;20056;-38
2021/11/03 08:38:11;;;;;;;931.67;870.53;;;;;;;19.81;55.39;102038.34;5060401;28;20021;-38
2021/11/03 08:40:37;;;;;;;963.60;900.00;;;;;;;19.78;55.50;102032.41;5041658;28;20037;-36
2021/11/03 08:43:06;;;;;;;960.97;897.03;;;;;;;19.60;55.93;102005.34;5037230;28;20070;-37
2021/11/03 08:45:33;;;;;;;947.38;884.35;;;;;;;19.77;55.72;102034.19;5042814;28;20029;-41
2021/11/03 08:48:00;;;;;;;931.85;871.08;;;;;;;19.77;55.42;102031.53;5050275;28;20029;-38
2021/11/03 08:50:28;;;;;;;919.22;859.42;;;;;;;19.78;55.70;102033.25;5048763;28;20141;-41
2021/11/03 08:52:54;;;;;;;929.15;868.85;;;;;;;19.78;55.29;102027.06;5055266;28;20170;-38
2021/11/03 08:55:21;;;;;;;939.13;876.53;;;;;;;19.78;55.62;102027.06;5055215;28;20025;-36
2021/11/03 08:57:47;;;;;;;941.20;879.70;;;;;;;19.73;55.62;102025.59;5054240;28;20037;-41
2021/11/03 09:00:20;;;;;;;930.05;869.13;;;;;;;19.73;55.46;102017.59;5052985;28;20028;-36
2021/11/03 09:02:49;;;;;;;932.75;871.83;;;;;;;19.71;55.57;102024.00;5047816;28;20037;-37
2021/11/03 09:05:15;;;;;;;927.85;867.47;;;;;;;19.71;55.60;102022.16;5035378;28;20363;-36
2021/11/03 09:07:41;;;;;;;937.58;876.33;;;;;;;19.70;55.48;102023.16;5053000;28;20021;-40
2021/11/03 09:10:09;;;;;;;927.50;867.03;;;;;;;19.67;55.33;102022.53;5055101;28;20441;-39
2021/11/03 09:12:35;;;;;;;898.03;840.95;;;;;;;19.69;55.44;102026.78;5051273;28;20021;-38
2021/11/03 09:15:01;;;;;;;890.17;833.58;;;;;;;19.69;55.33;102018.78;5053881;28;20052;-38
2021/11/03 09:17:28;;;;;;;921.47;861.95;;;;;;;19.71;55.31;102016.84;5047123;28;20517;-41
2021/11/03 09:19:55;;;;;;;932.95;872.65;;;;;;;19.66;55.33;102021.69;5052683;28;20037;-38
2021/11/03 09:22:22;;;;;;;896.90;839.28;;;;;;;19.67;55.27;102019.88;5055474;28;20028;-39
2021/11/03 09:24:48;;;;;;;913.70;855.30;;;;;;;19.64;55.35;102014.78;5052706;28;20087;-36
2021/11/03 09:27:15;;;;;;;924.45;864.40;;;;;;;19.63;55.10;102013.06;5055308;28;20082;-39
2021/11/03 09:29:46;;;;;;;924.63;864.47;;;;;;;19.61;55.32;102017.69;5053905;28;20029;-39
2021/11/03 09:32:14;;;;;;;935.60;874.58;;;;;;;19.59;55.29;102014.28;5052529;28;20064;-38
2021/11/03 09:34:42;;;;;;;931.00;870.65;;;;;;;19.61;55.24;102015.00;5053417;28;20043;-40
2021/11/03 09:37:09;;;;;;;917.35;858.00;;;;;;;19.62;55.28;102019.38;5052717;28;20025;-40
2021/11/03 09:39:36;;;;;;;924.00;864.47;;;;;;;19.64;55.52;102015.63;5053624;28;20047;-42
2021/11/03 09:42:02;;;;;;;923.50;863.47;;;;;;;19.63;55.02;102015.72;5054063;28;20116;-39
2021/11/03 09:44:30;;;;;;;919.13;859.22;;;;;;;19.60;55.08;102016.00;5050616;28;20025;-40
2021/11/03 09:46:56;;;;;;;918.83;859.92;;;;;;;19.56;55.38;102013.56;5049211;28;20021;-36
2021/11/03 09:49:36;;;;;;;922.38;862.25;;;;;;;19.54;55.40;102015.50;5048240;28;20466;-37
2021/11/03 09:52:25;;;;;;;921.17;861.70;;;;;;;19.57;55.46;102017.06;5053237;28;20040;-38
2021/11/03 09:55:10;;;;;;;929.58;869.42;;;;;;;19.55;55.37;102019.84;5053580;28;20056;-37
2021/11/03 09:57:52;;;;;;;897.80;841.88;;;;;;;19.52;55.17;102028.09;5055217;28;20029;-41
2021/11/03 10:00:48;;;;;;;882.55;827.33;;;;;;;19.60;54.90;102016.00;5052542;28;20021;-39
2021/11/03 10:03:25;;;;;;;863.90;810.20;;;;;;;19.54;54.98;102018.16;5026657;28;20098;-38
2021/11/03 10:05:54;;;;;;;882.80;828.05;;;;;;;19.46;55.27;102015.22;5037364;28;20036;-37
2021/11/03 10:08:22;;;;;;;887.00;831.35;;;;;;;19.51;55.24;102009.56;5045893;28;20462;-40
2021/11/03 10:10:57;;;;;;;889.20;832.85;;;;;;;19.48;55.66;102020.44;5047157;28;20352;-36
2021/11/03 10:13:26;;;;;;;887.60;832.38;;;;;;;19.47;55.33;102013.41;5043268;28;20103;-36
2021/11/03 10:16:00;;;;;;;913.38;855.08;;;;;;;19.47;55.26;102016.94;5050401;28;20025;-37
2021/11/03 10:18:31;;;;;;;898.15;841.65;;;;;;;19.49;55.36;102008.81;5043512;28;20044;-36
2021/11/03 10:21:00;;;;;;;888.45;832.60;;;;;;;19.46;55.13;102017.06;5039956;28;20036;-38
2021/11/03 10:23:28;;;;;;;886.65;830.90;;;;;;;19.46;55.14;102012.56;5052319;28;20037;-37
2021/11/03 10:26:06;;;;;;;872.90;818.22;;;;;;;19.36;55.15;101999.13;5046435;28;20030;-41
2021/11/03 10:28:37;;;;;;;858.05;804.83;;;;;;;19.45;54.88;102007.34;5067607;28;20021;-36
2021/11/03 10:31:07;;;;;;;875.67;821.28;;;;;;;19.48;55.11;102005.31;5046409;28;20040;-39
2021/11/03 10:33:38;;;;;;;894.20;837.72;;;;;;;19.46;54.91;102006.41;5049193;28;20033;-38
2021/11/03 10:36:18;;;;;;;865.83;811.38;;;;;;;19.42;55.42;102015.56;5042853;28;20340;-38
2021/11/03 10:38:55;;;;;;;888.00;831.95;;;;;;;19.43;55.49;102012.78;5043796;28;20163;-36
2021/11/03 10:41:30;;;;;;;882.80;827.65;;;;;;;19.38;55.37;102002.50;5048033;28;20081;-36
2021/11/03 10:44:20;;;;;;;893.13;837.42;;;;;;;19.40;55.15;101998.88;5049939;28;20032;-37
2021/11/03 10:46:53;;;;;;;877.20;822.60;;;;;;;19.40;55.12;102004.19;5050946;28;20518;-39
2021/11/03 10:49:38;;;;;;;898.53;842.88;;;;;;;19.36;55.18;102003.59;5044448;28;20024;-39
2021/11/03 10:52:17;;;;;;;880.35;825.28;;;;;;;19.38;55.02;102002.50;5061172;28;20120;-38
2021/11/03 10:54:49;;;;;;;866.60;812.70;;;;;;;19.40;54.78;102004.19;5061110;28;20029;-37
2021/11/03 10:57:18;;;;;;;859.40;806.80;;;;;;;19.40;54.90;102005.06;5052909;28;20048;-42